sensor_id;sensor_type;location;lat;lon;timestamp;pressure;altitude;pressure_sealevel;temperature;humidity
27864;BME280;15980;51.092;13.916;2023-02-18T00:03:27;98836.91;;;8.90;75.38
27864;BME280;15980;51.092;13.916;2023-02-18T00:13:27;98845.78;;;8.78;72.77
27864;BME280;15980;51.092;13.916;2023-02-18T00:23:27;98852.88;;;8.45;69.34
27864;BME280;15980;51.092;13.916;2023-02-18T00:33:28;98855.78;;;8.48;67.81
27864;BME280;15980;51.092;13.916;2023-02-18T00:43:28;98859.31;;;8.49;66.57
27864;BME280;15980;51.092;13.916;2023-02-18T00:53:29;98853.69;;;8.45;65.60
27864;BME280;15980;51.092;13.916;2023-02-18T01:03:29;98873.63;;;8.46;65.00
27864;BME280;15980;51.092;13.916;2023-02-18T01:13:30;98862.03;;;8.32;65.55
27864;BME280;15980;51.092;13.916;2023-02-18T01:23:30;98862.97;;;8.18;65.42
27864;BME280;15980;51.092;13.916;2023-02-18T01:33:30;98866.81;;;8.17;66.02
27864;BME280;15980;51.092;13.916;2023-02-18T01:43:31;98858.63;;;8.17;65.53
27864;BME280;15980;51.092;13.916;2023-02-18T02:03:39;98848.16;;;8.02;67.55
27864;BME280;15980;51.092;13.916;2023-02-18T02:24:33;98865.16;;;7.82;70.35
27864;BME280;15980;51.092;13.916;2023-02-18T02:34:51;98856.63;;;7.75;73.25
27864;BME280;15980;51.092;13.916;2023-02-18T02:54:55;98843.81;;;8.01;75.55
27864;BME280;15980;51.092;13.916;2023-02-18T03:15:45;98853.00;;;8.14;73.86
27864;BME280;15980;51.092;13.916;2023-02-18T03:25:48;98856.69;;;8.09;70.72
27864;BME280;15980;51.092;13.916;2023-02-18T03:35:50;98852.34;;;8.08;70.06
27864;BME280;15980;51.092;13.916;2023-02-18T03:45:51;98857.66;;;8.13;69.66
27864;BME280;15980;51.092;13.916;2023-02-18T03:55:51;98854.28;;;8.16;69.73
27864;BME280;15980;51.092;13.916;2023-02-18T04:05:52;98844.63;;;8.10;70.51
27864;BME280;15980;51.092;13.916;2023-02-18T04:15:52;98834.34;;;8.07;71.02
27864;BME280;15980;51.092;13.916;2023-02-18T04:25:52;98868.91;;;8.03;71.84
27864;BME280;15980;51.092;13.916;2023-02-18T04:35:53;98867.59;;;8.01;73.02
27864;BME280;15980;51.092;13.916;2023-02-18T04:45:53;98857.16;;;7.94;73.79
27864;BME280;15980;51.092;13.916;2023-02-18T04:55:53;98843.81;;;8.01;74.32
27864;BME280;15980;51.092;13.916;2023-02-18T05:05:54;98865.38;;;8.11;74.77
27864;BME280;15980;51.092;13.916;2023-02-18T05:15:54;98857.97;;;8.12;75.88
27864;BME280;15980;51.092;13.916;2023-02-18T05:25:54;98848.81;;;8.16;77.12
27864;BME280;15980;51.092;13.916;2023-02-18T05:35:55;98824.53;;;8.06;77.15
27864;BME280;15980;51.092;13.916;2023-02-18T05:45:55;98821.66;;;8.11;77.20
27864;BME280;15980;51.092;13.916;2023-02-18T05:55:55;98819.22;;;8.18;77.18
27864;BME280;15980;51.092;13.916;2023-02-18T06:05:55;98809.25;;;8.14;78.79
27864;BME280;15980;51.092;13.916;2023-02-18T06:15:56;98801.38;;;8.12;81.93
27864;BME280;15980;51.092;13.916;2023-02-18T06:25:56;98793.00;;;7.74;87.43
27864;BME280;15980;51.092;13.916;2023-02-18T06:35:59;98790.41;;;7.69;91.79
27864;BME280;15980;51.092;13.916;2023-02-18T06:46:00;98789.28;;;7.70;94.63
27864;BME280;15980;51.092;13.916;2023-02-18T06:56:00;98769.06;;;7.71;96.43
27864;BME280;15980;51.092;13.916;2023-02-18T07:06:01;98765.50;;;7.71;97.55
27864;BME280;15980;51.092;13.916;2023-02-18T07:16:01;98767.75;;;7.69;99.25
27864;BME280;15980;51.092;13.916;2023-02-18T07:26:10;98752.19;;;7.69;100.00
27864;BME280;15980;51.092;13.916;2023-02-18T07:36:11;98738.84;;;7.68;100.00
27864;BME280;15980;51.092;13.916;2023-02-18T07:46:11;98726.00;;;7.77;100.00
27864;BME280;15980;51.092;13.916;2023-02-18T07:56:12;98714.44;;;7.71;100.00
27864;BME280;15980;51.092;13.916;2023-02-18T08:06:30;98708.31;;;7.74;100.00
27864;BME280;15980;51.092;13.916;2023-02-18T08:16:31;98689.72;;;7.85;100.00
27864;BME280;15980;51.092;13.916;2023-02-18T08:26:31;98685.81;;;8.03;100.00
27864;BME280;15980;51.092;13.916;2023-02-18T08:36:31;98664.63;;;8.00;100.00
27864;BME280;15980;51.092;13.916;2023-02-18T08:46:32;98629.38;;;8.16;100.00
27864;BME280;15980;51.092;13.916;2023-02-18T08:56:32;98617.31;;;8.26;100.00
27864;BME280;15980;51.092;13.916;2023-02-18T09:06:36;98616.28;;;8.47;100.00
27864;BME280;15980;51.092;13.916;2023-02-18T09:16:38;98571.59;;;8.73;99.34
27864;BME280;15980;51.092;13.916;2023-02-18T09:26:38;98553.06;;;8.78;100.00
27864;BME280;15980;51.092;13.916;2023-02-18T09:36:38;98546.91;;;9.02;99.10
27864;BME280;15980;51.092;13.916;2023-02-18T09:46:45;98524.38;;;9.26;97.22
27864;BME280;15980;51.092;13.916;2023-02-18T09:56:48;98515.97;;;9.43;97.71
27864;BME280;15980;51.092;13.916;2023-02-18T10:06:51;98503.16;;;9.68;97.02
27864;BME280;15980;51.092;13.916;2023-02-18T10:16:52;98479.03;;;10.07;96.08
27864;BME280;15980;51.092;13.916;2023-02-18T10:26:53;98466.81;;;10.29;96.38
27864;BME280;15980;51.092;13.916;2023-02-18T10:37:00;98451.50;;;10.28;96.86
27864;BME280;15980;51.092;13.916;2023-02-18T10:57:30;98414.47;;;10.46;97.97
27864;BME280;15980;51.092;13.916;2023-02-18T11:07:33;98396.78;;;10.44;99.24
27864;BME280;15980;51.092;13.916;2023-02-18T11:17:35;98373.09;;;10.51;99.68
27864;BME280;15980;51.092;13.916;2023-02-18T11:27:42;98346.56;;;10.55;98.80
27864;BME280;15980;51.092;13.916;2023-02-18T11:37:43;98332.09;;;10.70;97.92
27864;BME280;15980;51.092;13.916;2023-02-18T11:47:58;98315.78;;;10.90;95.48
27864;BME280;15980;51.092;13.916;2023-02-18T11:58:03;98286.28;;;11.02;93.93
27864;BME280;15980;51.092;13.916;2023-02-18T12:08:11;98287.88;;;11.04;93.47
27864;BME280;15980;51.092;13.916;2023-02-18T12:39:35;98271.38;;;10.72;95.36
27864;BME280;15980;51.092;13.916;2023-02-18T12:49:59;98260.38;;;10.72;95.24
27864;BME280;15980;51.092;13.916;2023-02-18T13:41:00;98256.28;;;10.22;86.92
27864;BME280;15980;51.092;13.916;2023-02-18T13:51:04;98266.84;;;9.84;88.96
27864;BME280;15980;51.092;13.916;2023-02-18T15:02:21;98280.38;;;9.64;88.99
27864;BME280;15980;51.092;13.916;2023-02-18T15:12:23;98306.25;;;9.30;91.48
27864;BME280;15980;51.092;13.916;2023-02-18T15:22:25;98305.53;;;9.09;95.04
27864;BME280;15980;51.092;13.916;2023-02-18T15:32:27;98297.47;;;9.12;96.58
27864;BME280;15980;51.092;13.916;2023-02-18T15:42:34;98303.94;;;9.08;95.59
27864;BME280;15980;51.092;13.916;2023-02-18T15:52:37;98299.66;;;9.19;93.02
27864;BME280;15980;51.092;13.916;2023-02-18T16:02:50;98314.03;;;9.28;90.01
27864;BME280;15980;51.092;13.916;2023-02-18T16:12:53;98320.19;;;9.50;88.43
27864;BME280;15980;51.092;13.916;2023-02-18T16:22:54;98341.84;;;9.42;87.19
27864;BME280;15980;51.092;13.916;2023-02-18T16:32:55;98341.88;;;9.67;86.42
27864;BME280;15980;51.092;13.916;2023-02-18T16:43:01;98347.59;;;9.62;86.05
27864;BME280;15980;51.092;13.916;2023-02-18T16:53:01;98361.19;;;9.58;85.15
27864;BME280;15980;51.092;13.916;2023-02-18T17:03:02;98382.53;;;9.65;84.47
27864;BME280;15980;51.092;13.916;2023-02-18T17:13:03;98395.31;;;9.73;83.35
27864;BME280;15980;51.092;13.916;2023-02-18T17:23:03;98385.00;;;9.45;87.85
27864;BME280;15980;51.092;13.916;2023-02-18T17:33:05;98411.22;;;9.47;88.89
27864;BME280;15980;51.092;13.916;2023-02-18T17:43:05;98438.50;;;9.43;87.79
27864;BME280;15980;51.092;13.916;2023-02-18T17:53:06;98439.06;;;9.36;89.92
27864;BME280;15980;51.092;13.916;2023-02-18T18:03:06;98453.31;;;9.30;90.58
27864;BME280;15980;51.092;13.916;2023-02-18T18:13:11;98462.53;;;9.25;93.06
27864;BME280;15980;51.092;13.916;2023-02-18T18:23:15;98491.00;;;9.12;93.26
27864;BME280;15980;51.092;13.916;2023-02-18T18:43:23;98501.56;;;9.34;89.32
27864;BME280;15980;51.092;13.916;2023-02-18T18:53:26;98497.66;;;9.23;88.44
27864;BME280;15980;51.092;13.916;2023-02-18T19:03:28;98501.19;;;9.24;89.11
27864;BME280;15980;51.092;13.916;2023-02-18T19:13:30;98514.41;;;9.22;89.55
27864;BME280;15980;51.092;13.916;2023-02-18T19:23:32;98505.09;;;9.35;88.51
27864;BME280;15980;51.092;13.916;2023-02-18T19:33:32;98522.25;;;9.44;89.06
27864;BME280;15980;51.092;13.916;2023-02-18T19:43:33;98515.44;;;9.17;89.69
27864;BME280;15980;51.092;13.916;2023-02-18T19:53:33;98535.06;;;9.19;88.42
27864;BME280;15980;51.092;13.916;2023-02-18T20:03:34;98538.63;;;9.32;87.73
27864;BME280;15980;51.092;13.916;2023-02-18T20:13:34;98534.97;;;9.28;88.15
27864;BME280;15980;51.092;13.916;2023-02-18T20:23:34;98547.59;;;9.20;88.62
27864;BME280;15980;51.092;13.916;2023-02-18T20:33:35;98562.00;;;9.29;88.30
27864;BME280;15980;51.092;13.916;2023-02-18T20:43:36;98550.94;;;9.26;89.31
27864;BME280;15980;51.092;13.916;2023-02-18T20:53:38;98558.41;;;9.37;88.40
27864;BME280;15980;51.092;13.916;2023-02-18T21:03:40;98565.88;;;9.28;88.73
27864;BME280;15980;51.092;13.916;2023-02-18T21:13:41;98558.81;;;9.27;88.17
27864;BME280;15980;51.092;13.916;2023-02-18T21:23:42;98561.09;;;9.25;88.01
27864;BME280;15980;51.092;13.916;2023-02-18T21:33:42;98560.41;;;9.28;88.64
27864;BME280;15980;51.092;13.916;2023-02-18T21:43:44;98565.25;;;9.10;88.82
27864;BME280;15980;51.092;13.916;2023-02-18T21:53:44;98558.22;;;9.22;88.57
27864;BME280;15980;51.092;13.916;2023-02-18T22:03:45;98564.03;;;9.20;88.46
27864;BME280;15980;51.092;13.916;2023-02-18T22:13:45;98574.31;;;9.23;88.84
27864;BME280;15980;51.092;13.916;2023-02-18T22:23:45;98557.22;;;9.26;89.99
27864;BME280;15980;51.092;13.916;2023-02-18T22:33:46;98561.09;;;9.25;89.63
27864;BME280;15980;51.092;13.916;2023-02-18T22:43:46;98562.81;;;9.30;89.07
27864;BME280;15980;51.092;13.916;2023-02-18T22:53:47;98568.16;;;9.26;87.72
27864;BME280;15980;51.092;13.916;2023-02-18T23:03:48;98571.38;;;9.28;87.51
27864;BME280;15980;51.092;13.916;2023-02-18T23:13:48;98575.78;;;9.21;89.75
27864;BME280;15980;51.092;13.916;2023-02-18T23:23:51;98570.22;;;8.88;94.60
27864;BME280;15980;51.092;13.916;2023-02-18T23:33:55;98563.06;;;8.74;98.43
27864;BME280;15980;51.092;13.916;2023-02-18T23:43:56;98544.13;;;8.61;97.96
27864;BME280;15980;51.092;13.916;2023-02-18T23:53:56;98556.00;;;8.65;98.60
